Seagoville, TX (75159)

10:15 AM CDT on May 27, 2015 (GMT -0500)
Valley Creek | | Change Station
CLOSE
Current Station
Personal Weather Station
Location: Mesquite, TX
Elevation: 453 ft
Nearby Weather Stations

Elev 453 ft 32.75 °N, 96.59 °W | Updated 10 minutes ago

Clear
Clear
75.2 °F
Feels Like 77 °F
N
2.2
Wind Variable Wind from South

Today
High -- | Low -- °F
--% Chance of Precip.
Yesterday
High -- | Low -- °F
Precip. -- in
6:21 AM 8:25 PM
Waxing Gibbous, 68% visible
Pressure 30.11 in
Visibility 10.0 miles
Clouds Clear
Heat Index 77 °F
Dew Point 61 °F
Humidity 62%
Rainfall 0.20 in
Snow Depth Not available.
UV 5 out of 12
Pollen 1.50 out of 12
Air Quality Not available.
Flu Activity Sporadic
METAR KHQZ 271450Z 12004KT 10SM CLR 22/17 A3011

More Conditions Fewer Conditions

Pressure 30.11 in
Visibility 10.0 miles
Clouds Clear
Heat Index 77 °F
Dew Point 61 °F
Humidity 62%
Rainfall 0.20 in
Snow Depth Not available.
UV 5 out of 12
Pollen 1.50 out of 12
Air Quality Not available.
Flu Activity Sporadic
METAR KHQZ 271450Z 12004KT 10SM CLR 22/17 A3011

More Conditions Fewer Conditions

10-Day Weather Forecast

Almanac

Astronomy

May. 27, 2015 Rise Set
Actual Time
Civil Twilight
Nautical Twilight
Astronomical Twilight
Moon
Length of Visible Light
Length of Day
Tomorrow will be .
, % of the Moon is Illuminated

Today's Extremes

State Highs State Lows

Community

WunderPhotos

Upload Photos

1,824,695 photos uploaded!

WunderBlogs® & News

Nearby

Air Quality

  Air Quality AQ Index Pollutant
Not available.

Snow Depth

Station Depth Elevation

Earthquake Activity

City Distance Mag. Time & Date
Minimum magnitude displayed is 2.5.

Coastal Water Temperatures

Place Temperature

Stations

Nearby Weather Stations

Station Location Temp. Windchill Dew Point Humidity Wind Precip. Elev Updated Type
                   
Flood Warning
Statement as of 9:54 AM CDT on May 27, 2015

The Flood Warning continues for
the Trinity River at Dallas.
* At 0900 am Wednesday the stage was 37.26 feet.
* Flood stage is 30 feet.
* Minor flooding is occurring and minor flooding is forecast.
* Forecast... the river will continue rising to a crest near 38 feet
by Wednesday afternoon then begin falling but remain above flood
stage.


Lat... Lon 3275 9693 3281 9693 3283 9683 3275 9671
      3269 9676 3278 9687




954 am CDT Wed may 27 2015

The Flood Warning continues for
the Elm Fork Trinity River near Carrollton.
* At 0915 am Wednesday the stage was 7.41 feet.
* Flood stage is 8 feet.
* Minor flooding is forecast.
* Forecast... the river is expected to rise above flood stage by
Wednesday night and crest near 9 feet by Sunday after midnight.
* At 8 feet, minor flooding will occur downstream from the gage.


Lat... Lon 3300 9700 3287 9699 3287 9687 3300 9688